sensor_id;sensor_type;location;lat;lon;timestamp;pressure;altitude;pressure_sealevel;temperature;humidity
16821;BME280;8527;49.740;6.604;2022-08-02T00:00:26;100006.78;;;19.62;72.57
16821;BME280;8527;49.740;6.604;2022-08-02T00:05:28;100010.53;;;19.61;73.56
16821;BME280;8527;49.740;6.604;2022-08-02T00:10:29;100006.16;;;19.42;74.05
16821;BME280;8527;49.740;6.604;2022-08-02T00:15:28;99995.88;;;19.32;72.94
16821;BME280;8527;49.740;6.604;2022-08-02T00:20:32;99990.81;;;19.23;74.17
16821;BME280;8527;49.740;6.604;2022-08-02T00:25:31;99998.38;;;19.33;74.63
16821;BME280;8527;49.740;6.604;2022-08-02T00:30:29;99997.88;;;19.18;76.13
16821;BME280;8527;49.740;6.604;2022-08-02T00:35:27;100002.53;;;19.04;77.23
16821;BME280;8527;49.740;6.604;2022-08-02T00:40:29;100009.84;;;18.90;74.57
16821;BME280;8527;49.740;6.604;2022-08-02T00:45:30;100020.97;;;18.93;77.87
16821;BME280;8527;49.740;6.604;2022-08-02T00:50:38;100022.31;;;18.84;75.37
16821;BME280;8527;49.740;6.604;2022-08-02T00:55:39;100025.41;;;18.81;75.36
16821;BME280;8527;49.740;6.604;2022-08-02T01:00:38;100012.66;;;18.69;76.71
16821;BME280;8527;49.740;6.604;2022-08-02T01:05:36;100007.34;;;18.56;76.77
16821;BME280;8527;49.740;6.604;2022-08-02T01:10:35;100010.31;;;18.48;77.72
16821;BME280;8527;49.740;6.604;2022-08-02T01:15:41;100010.63;;;18.65;78.67
16821;BME280;8527;49.740;6.604;2022-08-02T01:21:03;100021.19;;;18.60;77.74
16821;BME280;8527;49.740;6.604;2022-08-02T01:26:16;100027.22;;;18.48;77.78
16821;BME280;8527;49.740;6.604;2022-08-02T01:31:25;100019.81;;;18.44;78.49
16821;BME280;8527;49.740;6.604;2022-08-02T01:36:31;100014.47;;;18.37;79.32
16821;BME280;8527;49.740;6.604;2022-08-02T01:41:33;100018.41;;;18.41;77.46
16821;BME280;8527;49.740;6.604;2022-08-02T01:46:39;100020.88;;;18.36;79.67
16821;BME280;8527;49.740;6.604;2022-08-02T01:51:39;100027.91;;;18.37;79.89
16821;BME280;8527;49.740;6.604;2022-08-02T01:56:55;100018.47;;;18.21;78.80
16821;BME280;8527;49.740;6.604;2022-08-02T02:02:00;100012.25;;;18.27;80.36
16821;BME280;8527;49.740;6.604;2022-08-02T02:07:01;100007.75;;;18.21;79.50
16821;BME280;8527;49.740;6.604;2022-08-02T02:12:06;100007.97;;;18.12;80.46
16821;BME280;8527;49.740;6.604;2022-08-02T02:17:11;100004.06;;;18.02;79.18
16821;BME280;8527;49.740;6.604;2022-08-02T02:22:10;100013.78;;;17.96;80.70
16821;BME280;8527;49.740;6.604;2022-08-02T02:27:12;100002.63;;;17.92;81.48
16821;BME280;8527;49.740;6.604;2022-08-02T02:32:15;100010.09;;;17.90;80.25
16821;BME280;8527;49.740;6.604;2022-08-02T02:37:19;100010.28;;;17.89;79.84
16821;BME280;8527;49.740;6.604;2022-08-02T02:42:25;100010.28;;;17.89;81.08
16821;BME280;8527;49.740;6.604;2022-08-02T02:47:28;100001.41;;;17.75;80.31
16821;BME280;8527;49.740;6.604;2022-08-02T02:52:35;100002.88;;;17.70;80.72
16821;BME280;8527;49.740;6.604;2022-08-02T02:57:41;100002.47;;;17.67;80.74
16821;BME280;8527;49.740;6.604;2022-08-02T03:02:43;100003.31;;;17.67;80.94
16821;BME280;8527;49.740;6.604;2022-08-02T03:07:48;100003.94;;;17.49;82.48
16821;BME280;8527;49.740;6.604;2022-08-02T03:12:47;99998.41;;;17.51;83.03
16821;BME280;8527;49.740;6.604;2022-08-02T03:17:48;100002.28;;;17.55;82.81
16821;BME280;8527;49.740;6.604;2022-08-02T03:22:47;100003.13;;;17.49;83.88
16821;BME280;8527;49.740;6.604;2022-08-02T03:27:46;99996.13;;;17.41;84.18
16821;BME280;8527;49.740;6.604;2022-08-02T03:32:49;99986.81;;;17.57;84.04
16821;BME280;8527;49.740;6.604;2022-08-02T03:37:48;99991.16;;;17.51;83.75
16821;BME280;8527;49.740;6.604;2022-08-02T03:42:53;99991.56;;;17.48;83.25
16821;BME280;8527;49.740;6.604;2022-08-02T03:47:58;99997.13;;;17.47;82.00
16821;BME280;8527;49.740;6.604;2022-08-02T03:53:01;99990.75;;;17.41;83.51
16821;BME280;8527;49.740;6.604;2022-08-02T03:58:08;99986.63;;;17.45;82.88
16821;BME280;8527;49.740;6.604;2022-08-02T04:03:11;99986.66;;;17.38;82.18
16821;BME280;8527;49.740;6.604;2022-08-02T04:08:09;99989.94;;;17.20;83.69
16821;BME280;8527;49.740;6.604;2022-08-02T04:13:10;99987.28;;;17.20;83.47
16821;BME280;8527;49.740;6.604;2022-08-02T04:18:11;99996.53;;;17.18;84.44
16821;BME280;8527;49.740;6.604;2022-08-02T04:23:14;99997.56;;;17.30;85.51
16821;BME280;8527;49.740;6.604;2022-08-02T04:28:15;100007.25;;;17.38;85.57
16821;BME280;8527;49.740;6.604;2022-08-02T04:33:19;100008.91;;;17.19;84.70
16821;BME280;8527;49.740;6.604;2022-08-02T04:38:17;100015.13;;;17.19;84.02
16821;BME280;8527;49.740;6.604;2022-08-02T04:43:24;100000.69;;;17.27;83.87
16821;BME280;8527;49.740;6.604;2022-08-02T04:48:31;100009.94;;;17.24;84.24
16821;BME280;8527;49.740;6.604;2022-08-02T04:53:30;100016.75;;;17.27;83.50
16821;BME280;8527;49.740;6.604;2022-08-02T04:58:28;100017.78;;;17.26;85.23
16821;BME280;8527;49.740;6.604;2022-08-02T05:03:27;100018.41;;;17.41;82.83
16821;BME280;8527;49.740;6.604;2022-08-02T05:08:33;100022.31;;;17.39;83.56
16821;BME280;8527;49.740;6.604;2022-08-02T05:13:32;100027.06;;;17.43;84.07
16821;BME280;8527;49.740;6.604;2022-08-02T05:18:30;100023.16;;;17.46;84.77
16821;BME280;8527;49.740;6.604;2022-08-02T05:23:31;100016.75;;;17.34;86.29
16821;BME280;8527;49.740;6.604;2022-08-02T05:28:30;100018.41;;;17.41;86.63
16821;BME280;8527;49.740;6.604;2022-08-02T05:33:28;100018.16;;;17.50;86.32
16821;BME280;8527;49.740;6.604;2022-08-02T05:38:27;100019.00;;;17.64;85.89
16821;BME280;8527;49.740;6.604;2022-08-02T05:43:29;100021.88;;;17.62;86.69
16821;BME280;8527;49.740;6.604;2022-08-02T05:48:27;100026.59;;;17.80;85.33
16821;BME280;8527;49.740;6.604;2022-08-02T05:53:35;100035.47;;;17.94;82.69
16821;BME280;8527;49.740;6.604;2022-08-02T05:58:44;100037.06;;;18.16;83.70
16821;BME280;8527;49.740;6.604;2022-08-02T06:03:49;100033.56;;;18.22;82.90
16821;BME280;8527;49.740;6.604;2022-08-02T06:08:59;100032.75;;;18.14;83.57
16821;BME280;8527;49.740;6.604;2022-08-02T06:14:02;100041.22;;;18.18;83.39
16821;BME280;8527;49.740;6.604;2022-08-02T06:19:01;100034.88;;;18.45;82.00
16821;BME280;8527;49.740;6.604;2022-08-02T06:24:01;100036.09;;;18.55;82.29
16821;BME280;8527;49.740;6.604;2022-08-02T06:29:03;100029.81;;;18.68;82.31
16821;BME280;8527;49.740;6.604;2022-08-02T06:34:02;100034.34;;;18.75;82.45
16821;BME280;8527;49.740;6.604;2022-08-02T06:39:05;100041.44;;;18.94;81.62
16821;BME280;8527;49.740;6.604;2022-08-02T06:44:11;100045.06;;;18.81;82.29
16821;BME280;8527;49.740;6.604;2022-08-02T06:49:10;100041.50;;;18.88;82.17
16821;BME280;8527;49.740;6.604;2022-08-02T06:54:08;100034.34;;;19.07;81.55
16821;BME280;8527;49.740;6.604;2022-08-02T06:59:11;100035.19;;;19.07;81.78
16821;BME280;8527;49.740;6.604;2022-08-02T07:04:10;100035.50;;;19.24;81.54
16821;BME280;8527;49.740;6.604;2022-08-02T07:09:09;100026.16;;;19.52;80.93
16821;BME280;8527;49.740;6.604;2022-08-02T07:14:17;100021.69;;;19.65;79.80
16821;BME280;8527;49.740;6.604;2022-08-02T07:19:20;100027.34;;;20.01;78.00
16821;BME280;8527;49.740;6.604;2022-08-02T07:24:34;100024.41;;;20.40;76.11
16821;BME280;8527;49.740;6.604;2022-08-02T07:29:40;100014.84;;;21.41;72.31
16821;BME280;8527;49.740;6.604;2022-08-02T07:34:41;100018.38;;;21.89;70.37
16821;BME280;8527;49.740;6.604;2022-08-02T07:39:45;100018.00;;;22.50;68.65
16821;BME280;8527;49.740;6.604;2022-08-02T07:44:49;100022.72;;;23.35;66.27
16821;BME280;8527;49.740;6.604;2022-08-02T07:49:52;100014.78;;;24.07;63.91
16821;BME280;8527;49.740;6.604;2022-08-02T07:54:51;100017.78;;;24.83;59.78
16821;BME280;8527;49.740;6.604;2022-08-02T07:59:55;100013.00;;;25.61;58.41
16821;BME280;8527;49.740;6.604;2022-08-02T08:04:53;100011.22;;;25.44;57.07
16821;BME280;8527;49.740;6.604;2022-08-02T08:09:55;100014.94;;;26.34;56.78
16821;BME280;8527;49.740;6.604;2022-08-02T08:14:59;100006.03;;;26.54;56.39
16821;BME280;8527;49.740;6.604;2022-08-02T08:19:58;100011.53;;;27.27;54.11
16821;BME280;8527;49.740;6.604;2022-08-02T08:24:56;100002.78;;;27.41;52.05
16821;BME280;8527;49.740;6.604;2022-08-02T08:29:57;100002.66;;;27.92;51.39
16821;BME280;8527;49.740;6.604;2022-08-02T08:35:00;100007.03;;;28.54;49.40
16821;BME280;8527;49.740;6.604;2022-08-02T08:40:04;100009.44;;;28.61;50.70
16821;BME280;8527;49.740;6.604;2022-08-02T08:45:08;100014.03;;;29.35;48.47
16821;BME280;8527;49.740;6.604;2022-08-02T08:50:09;100003.00;;;29.75;47.35
16821;BME280;8527;49.740;6.604;2022-08-02T08:55:09;99997.16;;;29.82;46.38
16821;BME280;8527;49.740;6.604;2022-08-02T09:00:12;99994.28;;;30.16;45.85
16821;BME280;8527;49.740;6.604;2022-08-02T09:05:13;99997.25;;;29.96;43.52
16821;BME280;8527;49.740;6.604;2022-08-02T09:10:31;99999.38;;;30.62;42.78
16821;BME280;8527;49.740;6.604;2022-08-02T09:15:32;99996.38;;;30.63;42.13
16821;BME280;8527;49.740;6.604;2022-08-02T09:20:52;99990.16;;;30.77;40.64
16821;BME280;8527;49.740;6.604;2022-08-02T09:25:56;99997.13;;;31.02;40.00
16821;BME280;8527;49.740;6.604;2022-08-02T09:31:02;99979.47;;;31.08;41.29
16821;BME280;8527;49.740;6.604;2022-08-02T09:36:03;99989.91;;;31.53;40.61
16821;BME280;8527;49.740;6.604;2022-08-02T09:41:02;99986.47;;;31.62;40.11
16821;BME280;8527;49.740;6.604;2022-08-02T09:46:17;99992.19;;;31.79;39.46
16821;BME280;8527;49.740;6.604;2022-08-02T09:51:18;99981.19;;;31.51;40.09
16821;BME280;8527;49.740;6.604;2022-08-02T09:56:38;99979.31;;;32.17;40.17
16821;BME280;8527;49.740;6.604;2022-08-02T10:01:40;99988.25;;;33.05;38.29
16821;BME280;8527;49.740;6.604;2022-08-02T10:06:40;99973.38;;;32.60;38.35
16821;BME280;8527;49.740;6.604;2022-08-02T10:11:44;99975.06;;;32.93;38.95
16821;BME280;8527;49.740;6.604;2022-08-02T10:16:46;99968.25;;;32.45;37.85
16821;BME280;8527;49.740;6.604;2022-08-02T10:21:49;99969.75;;;32.74;38.33
16821;BME280;8527;49.740;6.604;2022-08-02T10:26:56;99960.56;;;31.68;37.89
16821;BME280;8527;49.740;6.604;2022-08-02T10:32:00;99951.56;;;31.20;38.86
16821;BME280;8527;49.740;6.604;2022-08-02T10:37:04;99946.25;;;32.22;39.38
16821;BME280;8527;49.740;6.604;2022-08-02T10:42:06;99948.94;;;33.04;36.32
16821;BME280;8527;49.740;6.604;2022-08-02T10:47:24;99955.50;;;33.17;35.60
16821;BME280;8527;49.740;6.604;2022-08-02T10:52:23;99945.66;;;32.70;35.29
16821;BME280;8527;49.740;6.604;2022-08-02T10:57:23;99941.28;;;32.69;35.32
16821;BME280;8527;49.740;6.604;2022-08-02T11:02:36;99941.25;;;33.47;35.19
16821;BME280;8527;49.740;6.604;2022-08-02T11:07:39;99933.66;;;33.52;34.63
16821;BME280;8527;49.740;6.604;2022-08-02T11:13:00;99941.19;;;34.05;32.34
16821;BME280;8527;49.740;6.604;2022-08-02T11:18:01;99930.31;;;33.91;32.57
16821;BME280;8527;49.740;6.604;2022-08-02T11:23:33;99926.75;;;33.90;33.09
16821;BME280;8527;49.740;6.604;2022-08-02T11:28:32;99908.47;;;33.94;33.52
16821;BME280;8527;49.740;6.604;2022-08-02T11:33:36;99905.84;;;33.89;33.25
16821;BME280;8527;49.740;6.604;2022-08-02T11:38:35;99915.91;;;33.85;32.09
16821;BME280;8527;49.740;6.604;2022-08-02T11:43:34;99908.78;;;34.19;33.24
16821;BME280;8527;49.740;6.604;2022-08-02T11:48:37;99910.91;;;34.40;31.32
16821;BME280;8527;49.740;6.604;2022-08-02T11:53:47;99894.72;;;34.12;32.77
16821;BME280;8527;49.740;6.604;2022-08-02T11:59:01;99894.84;;;33.63;32.75
16821;BME280;8527;49.740;6.604;2022-08-02T12:04:04;99888.59;;;32.90;32.65
16821;BME280;8527;49.740;6.604;2022-08-02T12:09:07;99888.59;;;32.90;32.61
16821;BME280;8527;49.740;6.604;2022-08-02T12:14:09;99884.28;;;33.56;33.20
16821;BME280;8527;49.740;6.604;2022-08-02T12:19:15;99873.78;;;33.76;31.11
16821;BME280;8527;49.740;6.604;2022-08-02T12:24:27;99887.13;;;33.33;32.83
16821;BME280;8527;49.740;6.604;2022-08-02T12:29:30;99879.16;;;33.14;33.23
16821;BME280;8527;49.740;6.604;2022-08-02T12:34:32;99875.72;;;33.66;32.76
16821;BME280;8527;49.740;6.604;2022-08-02T12:39:39;99865.22;;;34.13;32.38
16821;BME280;8527;49.740;6.604;2022-08-02T12:44:49;99869.28;;;34.06;31.26
16821;BME280;8527;49.740;6.604;2022-08-02T12:50:15;99864.59;;;34.16;32.27
16821;BME280;8527;49.740;6.604;2022-08-02T12:55:22;99861.34;;;33.78;31.44
16821;BME280;8527;49.740;6.604;2022-08-02T13:00:26;99862.28;;;32.98;32.92
16821;BME280;8527;49.740;6.604;2022-08-02T13:05:28;99846.09;;;33.63;32.37
16821;BME280;8527;49.740;6.604;2022-08-02T13:10:27;99838.22;;;33.13;33.42
16821;BME280;8527;49.740;6.604;2022-08-02T13:15:28;99843.84;;;33.48;34.07
16821;BME280;8527;49.740;6.604;2022-08-02T13:20:32;99835.91;;;33.73;32.50
16821;BME280;8527;49.740;6.604;2022-08-02T13:25:33;99828.22;;;32.85;33.17
16821;BME280;8527;49.740;6.604;2022-08-02T13:30:31;99830.97;;;32.85;33.21
16821;BME280;8527;49.740;6.604;2022-08-02T13:35:35;99830.34;;;32.88;33.69
16821;BME280;8527;49.740;6.604;2022-08-02T13:40:34;99820.31;;;33.33;34.21
16821;BME280;8527;49.740;6.604;2022-08-02T13:45:53;99814.97;;;33.36;33.68
16821;BME280;8527;49.740;6.604;2022-08-02T13:50:56;99817.84;;;33.22;33.00
16821;BME280;8527;49.740;6.604;2022-08-02T13:55:55;99802.69;;;32.84;33.67
16821;BME280;8527;49.740;6.604;2022-08-02T14:00:55;99806.34;;;33.03;33.72
16821;BME280;8527;49.740;6.604;2022-08-02T14:05:56;99801.63;;;32.94;33.94
16821;BME280;8527;49.740;6.604;2022-08-02T14:10:55;99789.78;;;33.52;33.93
16821;BME280;8527;49.740;6.604;2022-08-02T14:16:02;99785.03;;;33.26;33.33
16821;BME280;8527;49.740;6.604;2022-08-02T14:21:06;99795.66;;;33.01;33.49
16821;BME280;8527;49.740;6.604;2022-08-02T14:26:05;99788.31;;;32.47;34.54
16821;BME280;8527;49.740;6.604;2022-08-02T14:31:23;99789.66;;;32.59;34.17
16821;BME280;8527;49.740;6.604;2022-08-02T14:36:27;99772.13;;;32.77;34.20
16821;BME280;8527;49.740;6.604;2022-08-02T14:41:26;99787.75;;;33.00;34.25
16821;BME280;8527;49.740;6.604;2022-08-02T14:46:28;99781.03;;;32.83;35.06
16821;BME280;8527;49.740;6.604;2022-08-02T14:51:33;99772.81;;;32.92;33.89
16821;BME280;8527;49.740;6.604;2022-08-02T14:56:32;99773.91;;;32.82;34.02
16821;BME280;8527;49.740;6.604;2022-08-02T15:01:34;99776.56;;;32.96;34.18
16821;BME280;8527;49.740;6.604;2022-08-02T15:06:35;99772.38;;;32.58;33.55
16821;BME280;8527;49.740;6.604;2022-08-02T15:11:33;99766.66;;;32.46;33.67
16821;BME280;8527;49.740;6.604;2022-08-02T15:16:34;99763.16;;;32.94;34.24
16821;BME280;8527;49.740;6.604;2022-08-02T15:21:38;99757.81;;;32.49;34.16
16821;BME280;8527;49.740;6.604;2022-08-02T15:26:37;99756.09;;;32.07;33.26
16821;BME280;8527;49.740;6.604;2022-08-02T15:31:38;99749.97;;;32.10;34.19
16821;BME280;8527;49.740;6.604;2022-08-02T15:36:45;99748.91;;;32.43;34.17
16821;BME280;8527;49.740;6.604;2022-08-02T15:41:45;99744.66;;;32.14;35.01
16821;BME280;8527;49.740;6.604;2022-08-02T15:46:51;99744.84;;;32.40;34.73
16821;BME280;8527;49.740;6.604;2022-08-02T15:51:53;99751.03;;;32.23;35.36
16821;BME280;8527;49.740;6.604;2022-08-02T15:56:55;99735.81;;;32.17;35.37
16821;BME280;8527;49.740;6.604;2022-08-02T16:01:53;99737.50;;;31.58;35.04
16821;BME280;8527;49.740;6.604;2022-08-02T16:06:57;99746.25;;;31.83;36.43
16821;BME280;8527;49.740;6.604;2022-08-02T16:11:55;99745.34;;;31.51;35.84
16821;BME280;8527;49.740;6.604;2022-08-02T16:16:57;99739.50;;;31.67;36.22
16821;BME280;8527;49.740;6.604;2022-08-02T16:21:58;99738.13;;;31.55;35.38
16821;BME280;8527;49.740;6.604;2022-08-02T16:27:00;99734.19;;;30.97;36.28
16821;BME280;8527;49.740;6.604;2022-08-02T16:31:58;99727.28;;;30.99;35.87
16821;BME280;8527;49.740;6.604;2022-08-02T16:37:02;99727.00;;;30.87;37.03
16821;BME280;8527;49.740;6.604;2022-08-02T16:42:00;99724.41;;;31.19;38.26
16821;BME280;8527;49.740;6.604;2022-08-02T16:46:59;99720.34;;;31.30;36.17
16821;BME280;8527;49.740;6.604;2022-08-02T16:51:57;99705.66;;;31.49;36.60
16821;BME280;8527;49.740;6.604;2022-08-02T16:57:04;99702.16;;;31.20;35.95
16821;BME280;8527;49.740;6.604;2022-08-02T17:02:02;99704.75;;;31.02;37.30
16821;BME280;8527;49.740;6.604;2022-08-02T17:07:03;99707.34;;;31.22;36.46
16821;BME280;8527;49.740;6.604;2022-08-02T17:12:05;99701.78;;;31.13;37.95
16821;BME280;8527;49.740;6.604;2022-08-02T17:17:04;99702.91;;;30.98;37.38
16821;BME280;8527;49.740;6.604;2022-08-02T17:22:02;99695.81;;;30.97;37.50
16821;BME280;8527;49.740;6.604;2022-08-02T17:27:04;99703.03;;;30.93;37.85
16821;BME280;8527;49.740;6.604;2022-08-02T17:32:03;99707.59;;;30.83;40.01
16821;BME280;8527;49.740;6.604;2022-08-02T17:37:05;99702.25;;;30.64;40.56
16821;BME280;8527;49.740;6.604;2022-08-02T17:42:06;99695.75;;;30.60;39.54
16821;BME280;8527;49.740;6.604;2022-08-02T17:47:05;99702.03;;;30.46;40.82
16821;BME280;8527;49.740;6.604;2022-08-02T17:52:04;99699.56;;;30.31;40.75
16821;BME280;8527;49.740;6.604;2022-08-02T17:57:13;99695.78;;;30.13;42.10
16821;BME280;8527;49.740;6.604;2022-08-02T18:02:15;99707.38;;;29.90;41.96
16821;BME280;8527;49.740;6.604;2022-08-02T18:07:13;99706.25;;;29.78;43.13
16821;BME280;8527;49.740;6.604;2022-08-02T18:12:14;99698.19;;;29.67;42.76
16821;BME280;8527;49.740;6.604;2022-08-02T18:17:18;99700.56;;;29.36;43.26
16821;BME280;8527;49.740;6.604;2022-08-02T18:22:17;99701.44;;;29.12;44.03
16821;BME280;8527;49.740;6.604;2022-08-02T18:27:18;99700.78;;;28.76;44.94
16821;BME280;8527;49.740;6.604;2022-08-02T18:32:16;99693.81;;;28.65;45.17
16821;BME280;8527;49.740;6.604;2022-08-02T18:37:19;99697.75;;;28.54;45.62
16821;BME280;8527;49.740;6.604;2022-08-02T18:42:23;99688.13;;;28.37;46.62
16821;BME280;8527;49.740;6.604;2022-08-02T18:47:27;99691.44;;;28.34;46.17
16821;BME280;8527;49.740;6.604;2022-08-02T18:52:30;99693.06;;;28.05;47.05
16821;BME280;8527;49.740;6.604;2022-08-02T18:57:31;99694.50;;;27.98;46.36
16821;BME280;8527;49.740;6.604;2022-08-02T19:02:33;99695.44;;;27.83;46.59
16821;BME280;8527;49.740;6.604;2022-08-02T19:07:31;99691.84;;;27.87;46.85
16821;BME280;8527;49.740;6.604;2022-08-02T19:12:32;99689.88;;;27.63;46.84
16821;BME280;8527;49.740;6.604;2022-08-02T19:17:31;99691.91;;;27.42;47.02
16821;BME280;8527;49.740;6.604;2022-08-02T19:22:29;99699.34;;;27.26;47.61
16821;BME280;8527;49.740;6.604;2022-08-02T19:27:31;99698.59;;;27.15;47.02
16821;BME280;8527;49.740;6.604;2022-08-02T19:32:32;99705.47;;;27.02;47.30
16821;BME280;8527;49.740;6.604;2022-08-02T19:37:31;99699.22;;;27.02;47.60
16821;BME280;8527;49.740;6.604;2022-08-02T19:42:33;99701.16;;;26.86;47.38
16821;BME280;8527;49.740;6.604;2022-08-02T19:47:37;99712.41;;;26.63;48.33
16821;BME280;8527;49.740;6.604;2022-08-02T19:52:35;99709.19;;;26.51;47.44
16821;BME280;8527;49.740;6.604;2022-08-02T19:57:34;99706.75;;;26.39;48.83
16821;BME280;8527;49.740;6.604;2022-08-02T20:02:38;99711.13;;;26.14;49.00
16821;BME280;8527;49.740;6.604;2022-08-02T20:07:36;99711.13;;;26.09;48.65
16821;BME280;8527;49.740;6.604;2022-08-02T20:12:40;99705.97;;;25.97;49.38
16821;BME280;8527;49.740;6.604;2022-08-02T20:17:42;99709.75;;;25.70;50.05
16821;BME280;8527;49.740;6.604;2022-08-02T20:22:41;99717.13;;;25.69;50.87
16821;BME280;8527;49.740;6.604;2022-08-02T20:27:52;99719.28;;;25.62;50.29
16821;BME280;8527;49.740;6.604;2022-08-02T20:32:53;99723.34;;;25.54;50.54
16821;BME280;8527;49.740;6.604;2022-08-02T20:37:52;99727.63;;;25.35;50.45
16821;BME280;8527;49.740;6.604;2022-08-02T20:42:52;99731.38;;;25.18;51.31
16821;BME280;8527;49.740;6.604;2022-08-02T20:47:53;99730.19;;;24.93;51.89
16821;BME280;8527;49.740;6.604;2022-08-02T20:52:57;99723.56;;;24.73;52.29
16821;BME280;8527;49.740;6.604;2022-08-02T20:57:59;99728.63;;;24.54;53.32
16821;BME280;8527;49.740;6.604;2022-08-02T21:03:02;99735.44;;;24.62;53.11
16821;BME280;8527;49.740;6.604;2022-08-02T21:08:01;99737.84;;;24.53;52.60
16821;BME280;8527;49.740;6.604;2022-08-02T21:13:01;99734.91;;;24.22;53.81
16821;BME280;8527;49.740;6.604;2022-08-02T21:18:02;99732.69;;;24.14;54.41
16821;BME280;8527;49.740;6.604;2022-08-02T21:23:01;99736.06;;;23.99;54.45
16821;BME280;8527;49.740;6.604;2022-08-02T21:28:02;99742.56;;;23.98;55.83
16821;BME280;8527;49.740;6.604;2022-08-02T21:33:04;99733.44;;;23.77;55.92
16821;BME280;8527;49.740;6.604;2022-08-02T21:38:09;99743.88;;;23.90;56.60
16821;BME280;8527;49.740;6.604;2022-08-02T21:43:07;99742.13;;;23.79;55.10
16821;BME280;8527;49.740;6.604;2022-08-02T21:48:08;99739.13;;;23.48;56.86
16821;BME280;8527;49.740;6.604;2022-08-02T21:53:07;99737.56;;;23.52;56.71
16821;BME280;8527;49.740;6.604;2022-08-02T21:58:06;99748.03;;;23.26;58.86
16821;BME280;8527;49.740;6.604;2022-08-02T22:03:04;99746.69;;;23.23;58.29
16821;BME280;8527;49.740;6.604;2022-08-02T22:08:06;99746.56;;;23.13;58.04
16821;BME280;8527;49.740;6.604;2022-08-02T22:13:07;99743.16;;;23.00;58.29
16821;BME280;8527;49.740;6.604;2022-08-02T22:18:06;99757.06;;;22.87;58.80
16821;BME280;8527;49.740;6.604;2022-08-02T22:23:10;99758.38;;;22.84;59.64
16821;BME280;8527;49.740;6.604;2022-08-02T22:28:13;99764.41;;;22.69;59.88
16821;BME280;8527;49.740;6.604;2022-08-02T22:33:15;99761.38;;;22.66;60.27
16821;BME280;8527;49.740;6.604;2022-08-02T22:38:28;99769.34;;;22.55;60.88
16821;BME280;8527;49.740;6.604;2022-08-02T22:43:29;99769.16;;;22.62;60.66
16821;BME280;8527;49.740;6.604;2022-08-02T22:48:29;99769.88;;;22.40;61.54
16821;BME280;8527;49.740;6.604;2022-08-02T22:53:32;99766.13;;;22.24;61.16
16821;BME280;8527;49.740;6.604;2022-08-02T22:58:31;99766.03;;;22.19;62.12
16821;BME280;8527;49.740;6.604;2022-08-02T23:03:35;99768.00;;;22.24;63.18
16821;BME280;8527;49.740;6.604;2022-08-02T23:08:42;99774.56;;;22.28;61.43
16821;BME280;8527;49.740;6.604;2022-08-02T23:13:41;99767.34;;;21.99;62.98
16821;BME280;8527;49.740;6.604;2022-08-02T23:18:41;99769.16;;;21.94;63.69
16821;BME280;8527;49.740;6.604;2022-08-02T23:23:54;99766.75;;;21.97;63.89
16821;BME280;8527;49.740;6.604;2022-08-02T23:28:56;99769.31;;;21.87;63.08
16821;BME280;8527;49.740;6.604;2022-08-02T23:33:58;99770.34;;;21.86;64.16
16821;BME280;8527;49.740;6.604;2022-08-02T23:39:02;99763.59;;;21.71;64.01
16821;BME280;8527;49.740;6.604;2022-08-02T23:44:06;99762.09;;;21.63;66.15
16821;BME280;8527;49.740;6.604;2022-08-02T23:49:11;99775.50;;;21.58;65.55
16821;BME280;8527;49.740;6.604;2022-08-02T23:54:16;99768.22;;;21.59;66.80
16821;BME280;8527;49.740;6.604;2022-08-02T23:59:19;99774.47;;;21.47;65.64
